sensor_id;sensor_type;location;lat;lon;timestamp;pressure;altitude;pressure_sealevel;temperature;humidity
48792;BME280;34587;48.816;9.420;2023-04-21T04:15:37;98470.13;;;4.09;100.00
48792;BME280;34587;48.816;9.420;2023-04-21T04:18:03;98461.56;;;4.05;100.00
48792;BME280;34587;48.816;9.420;2023-04-21T04:20:28;98461.59;;;4.04;100.00
48792;BME280;34587;48.816;9.420;2023-04-21T04:22:53;98458.19;;;4.02;100.00
48792;BME280;34587;48.816;9.420;2023-04-21T04:25:19;98454.75;;;4.06;100.00
48792;BME280;34587;48.816;9.420;2023-04-21T04:27:45;98453.84;;;3.85;100.00
48792;BME280;34587;48.816;9.420;2023-04-21T04:30:11;98454.66;;;3.77;100.00
48792;BME280;34587;48.816;9.420;2023-04-21T04:32:37;98451.19;;;3.61;100.00
48792;BME280;34587;48.816;9.420;2023-04-21T04:35:04;98459.72;;;3.66;100.00
48792;BME280;34587;48.816;9.420;2023-04-21T04:37:30;98455.53;;;3.79;100.00
48792;BME280;34587;48.816;9.420;2023-04-21T04:39:56;98452.91;;;3.71;100.00
48792;BME280;34587;48.816;9.420;2023-04-21T04:42:22;98444.38;;;3.72;100.00
48792;BME280;34587;48.816;9.420;2023-04-21T04:44:52;98453.78;;;3.69;100.00
48792;BME280;34587;48.816;9.420;2023-04-21T04:47:17;98458.91;;;3.75;100.00
48792;BME280;34587;48.816;9.420;2023-04-21T04:49:43;98454.66;;;3.75;100.00
48792;BME280;34587;48.816;9.420;2023-04-21T04:52:08;98470.00;;;3.72;100.00
48792;BME280;34587;48.816;9.420;2023-04-21T04:54:33;98486.19;;;3.67;100.00
48792;BME280;34587;48.816;9.420;2023-04-21T04:56:58;98487.00;;;3.55;100.00
48792;BME280;34587;48.816;9.420;2023-04-21T04:59:24;98487.84;;;3.49;100.00
48792;BME280;34587;48.816;9.420;2023-04-21T05:01:49;98471.66;;;3.59;100.00
48792;BME280;34587;48.816;9.420;2023-04-21T05:04:15;98470.75;;;3.51;100.00
48792;BME280;34587;48.816;9.420;2023-04-21T05:06:41;98482.75;;;3.57;100.00
48792;BME280;34587;48.816;9.420;2023-04-21T05:09:06;98498.09;;;3.57;100.00
48792;BME280;34587;48.816;9.420;2023-04-21T05:11:31;98495.59;;;3.66;100.00
48792;BME280;34587;48.816;9.420;2023-04-21T05:13:57;98491.38;;;3.76;100.00
48792;BME280;34587;48.816;9.420;2023-04-21T05:16:22;98474.34;;;3.84;100.00
48792;BME280;34587;48.816;9.420;2023-04-21T05:18:47;98468.34;;;3.86;100.00
48792;BME280;34587;48.816;9.420;2023-04-21T05:21:27;98478.63;;;3.90;100.00
48792;BME280;34587;48.816;9.420;2023-04-21T05:23:56;98479.50;;;3.93;100.00
48792;BME280;34587;48.816;9.420;2023-04-21T05:26:22;98482.03;;;3.82;100.00
48792;BME280;34587;48.816;9.420;2023-04-21T05:28:48;98483.72;;;3.83;100.00
48792;BME280;34587;48.816;9.420;2023-04-21T05:31:13;98488.88;;;3.96;100.00
48792;BME280;34587;48.816;9.420;2023-04-21T05:33:39;98499.13;;;3.96;100.00
48792;BME280;34587;48.816;9.420;2023-04-21T05:36:07;98505.13;;;3.95;100.00
48792;BME280;34587;48.816;9.420;2023-04-21T05:38:34;98507.72;;;4.04;100.00
48792;BME280;34587;48.816;9.420;2023-04-21T05:40:59;98507.75;;;4.13;100.00
48792;BME280;34587;48.816;9.420;2023-04-21T05:43:25;98511.16;;;4.03;100.00
48792;BME280;34587;48.816;9.420;2023-04-21T05:45:50;98503.53;;;4.21;100.00
48792;BME280;34587;48.816;9.420;2023-04-21T05:48:16;98493.25;;;4.12;100.00
48792;BME280;34587;48.816;9.420;2023-04-21T05:50:41;98487.28;;;4.21;100.00
48792;BME280;34587;48.816;9.420;2023-04-21T05:53:06;98489.03;;;4.42;100.00
48792;BME280;34587;48.816;9.420;2023-04-21T05:55:35;98483.06;;;4.52;100.00
48792;BME280;34587;48.816;9.420;2023-04-21T05:58:00;98466.81;;;4.59;100.00
48792;BME280;34587;48.816;9.420;2023-04-21T06:00:26;98458.25;;;4.72;100.00
48792;BME280;34587;48.816;9.420;2023-04-21T06:02:51;98464.25;;;4.70;100.00
48792;BME280;34587;48.816;9.420;2023-04-21T06:05:17;98460.84;;;4.84;100.00
48792;BME280;34587;48.816;9.420;2023-04-21T06:07:42;98456.56;;;4.77;100.00
48792;BME280;34587;48.816;9.420;2023-04-21T06:10:09;98448.00;;;4.87;100.00
48792;BME280;34587;48.816;9.420;2023-04-21T06:12:35;98448.00;;;4.90;100.00
48792;BME280;34587;48.816;9.420;2023-04-21T06:15:00;98442.84;;;4.87;100.00
48792;BME280;34587;48.816;9.420;2023-04-21T06:17:26;98441.13;;;4.83;100.00
48792;BME280;34587;48.816;9.420;2023-04-21T06:19:51;98453.13;;;4.90;100.00
48792;BME280;34587;48.816;9.420;2023-04-21T06:22:24;98447.97;;;5.12;100.00
48792;BME280;34587;48.816;9.420;2023-04-21T06:24:50;98451.41;;;4.96;100.00
48792;BME280;34587;48.816;9.420;2023-04-21T06:27:15;98436.00;;;4.93;100.00
48792;BME280;34587;48.816;9.420;2023-04-21T06:29:41;98432.59;;;4.97;100.00
48792;BME280;34587;48.816;9.420;2023-04-21T06:32:10;98441.16;;;4.86;100.00
48792;BME280;34587;48.816;9.420;2023-04-21T06:34:36;98453.13;;;4.90;100.00
48792;BME280;34587;48.816;9.420;2023-04-21T06:37:01;98449.72;;;4.79;100.00
48792;BME280;34587;48.816;9.420;2023-04-21T06:39:27;98448.84;;;4.82;100.00
48792;BME280;34587;48.816;9.420;2023-04-21T06:41:52;98453.16;;;4.60;100.00
48792;BME280;34587;48.816;9.420;2023-04-21T06:44:18;98456.56;;;4.89;100.00
48792;BME280;34587;48.816;9.420;2023-04-21T06:46:43;98449.69;;;4.92;100.00
48792;BME280;34587;48.816;9.420;2023-04-21T06:49:09;98449.69;;;5.10;100.00
48792;BME280;34587;48.816;9.420;2023-04-21T06:51:34;98472.78;;;5.25;100.00
48792;BME280;34587;48.816;9.420;2023-04-21T06:54:00;98482.97;;;5.56;100.00
48792;BME280;34587;48.816;9.420;2023-04-21T06:56:26;98466.63;;;7.13;100.00
48792;BME280;34587;48.816;9.420;2023-04-21T06:58:52;98437.56;;;8.99;88.29
48792;BME280;34587;48.816;9.420;2023-04-21T07:01:17;98434.16;;;8.42;83.65
48792;BME280;34587;48.816;9.420;2023-04-21T07:03:43;98435.56;;;7.27;89.54
48792;BME280;34587;48.816;9.420;2023-04-21T07:06:08;98434.78;;;7.22;91.58
48792;BME280;34587;48.816;9.420;2023-04-21T07:08:33;98428.97;;;7.00;92.15
48792;BME280;34587;48.816;9.420;2023-04-21T07:10:59;98432.66;;;6.73;94.03
48792;BME280;34587;48.816;9.420;2023-04-21T07:13:24;98432.78;;;6.58;95.71
48792;BME280;34587;48.816;9.420;2023-04-21T07:15:49;98426.63;;;6.77;95.74
48792;BME280;34587;48.816;9.420;2023-04-21T07:18:15;98418.00;;;6.78;95.44
48792;BME280;34587;48.816;9.420;2023-04-21T07:20:40;98429.09;;;6.88;95.12
48792;BME280;34587;48.816;9.420;2023-04-21T07:23:06;98427.66;;;6.52;95.17
48792;BME280;34587;48.816;9.420;2023-04-21T07:25:31;98424.16;;;6.63;95.78
48792;BME280;34587;48.816;9.420;2023-04-21T07:27:56;98416.34;;;6.71;96.05
48792;BME280;34587;48.816;9.420;2023-04-21T07:30:22;98412.97;;;6.66;95.17
48792;BME280;34587;48.816;9.420;2023-04-21T07:32:47;98407.03;;;6.56;95.67
48792;BME280;34587;48.816;9.420;2023-04-21T07:35:13;98398.34;;;6.73;96.10
48792;BME280;34587;48.816;9.420;2023-04-21T07:37:38;98398.88;;;7.04;96.09
48792;BME280;34587;48.816;9.420;2023-04-21T07:40:06;98405.06;;;6.86;95.32
48792;BME280;34587;48.816;9.420;2023-04-21T07:42:31;98405.63;;;7.17;94.42
48792;BME280;34587;48.816;9.420;2023-04-21T07:44:56;98406.06;;;7.54;92.21
48792;BME280;34587;48.816;9.420;2023-04-21T07:47:22;98395.78;;;8.16;89.94
48792;BME280;34587;48.816;9.420;2023-04-21T07:49:47;98381.50;;;8.50;87.67
48792;BME280;34587;48.816;9.420;2023-04-21T07:52:13;98386.03;;;8.35;86.46
48792;BME280;34587;48.816;9.420;2023-04-21T07:54:38;98396.88;;;7.99;87.35
48792;BME280;34587;48.816;9.420;2023-04-21T07:57:03;98385.56;;;8.10;88.75
48792;BME280;34587;48.816;9.420;2023-04-21T07:59:29;98397.88;;;8.49;87.25
48792;BME280;34587;48.816;9.420;2023-04-21T08:01:54;98382.88;;;9.21;84.24
48792;BME280;34587;48.816;9.420;2023-04-21T08:04:19;98384.41;;;9.74;80.56
48792;BME280;34587;48.816;9.420;2023-04-21T08:06:45;98388.69;;;9.75;78.52
48792;BME280;34587;48.816;9.420;2023-04-21T08:09:10;98393.66;;;10.23;80.00
48792;BME280;34587;48.816;9.420;2023-04-21T08:11:36;98390.63;;;10.45;77.09
48792;BME280;34587;48.816;9.420;2023-04-21T08:14:01;98394.25;;;9.97;77.00
48792;BME280;34587;48.816;9.420;2023-04-21T08:16:28;98392.47;;;9.99;79.90
48792;BME280;34587;48.816;9.420;2023-04-21T08:18:53;98392.63;;;10.68;76.24
48792;BME280;34587;48.816;9.420;2023-04-21T08:21:19;98378.59;;;12.02;72.42
48792;BME280;34587;48.816;9.420;2023-04-21T08:23:44;98383.66;;;12.88;67.47
48792;BME280;34587;48.816;9.420;2023-04-21T08:26:09;98376.13;;;13.32;65.75
48792;BME280;34587;48.816;9.420;2023-04-21T08:28:35;98389.16;;;13.55;63.49
48792;BME280;34587;48.816;9.420;2023-04-21T08:31:00;98365.66;;;16.08;57.30
48792;BME280;34587;48.816;9.420;2023-04-21T08:33:26;98379.75;;;16.41;54.38
48792;BME280;34587;48.816;9.420;2023-04-21T08:35:52;98379.66;;;16.07;53.61
48792;BME280;34587;48.816;9.420;2023-04-21T08:38:17;98365.34;;;17.54;50.04
48792;BME280;34587;48.816;9.420;2023-04-21T08:40:42;98366.25;;;19.40;46.12
48792;BME280;34587;48.816;9.420;2023-04-21T08:43:08;98367.38;;;21.66;41.76
48792;BME280;34587;48.816;9.420;2023-04-21T08:45:34;98382.78;;;19.56;42.96
48792;BME280;34587;48.816;9.420;2023-04-21T08:48:01;98376.34;;;20.32;43.77
48792;BME280;34587;48.816;9.420;2023-04-21T08:50:28;98384.31;;;20.03;43.47
48792;BME280;34587;48.816;9.420;2023-04-21T08:52:54;98379.78;;;21.13;41.10
48792;BME280;34587;48.816;9.420;2023-04-21T08:55:29;98376.09;;;22.90;38.44
48792;BME280;34587;48.816;9.420;2023-04-21T08:57:54;98370.53;;;20.26;40.71
48792;BME280;34587;48.816;9.420;2023-04-21T09:00:20;98356.38;;;21.21;40.41
48792;BME280;34587;48.816;9.420;2023-04-21T09:02:58;98356.97;;;23.32;36.41
48792;BME280;34587;48.816;9.420;2023-04-21T09:05:29;98352.44;;;23.91;34.31
48792;BME280;34587;48.816;9.420;2023-04-21T09:08:15;98343.97;;;25.36;33.55
48792;BME280;34587;48.816;9.420;2023-04-21T09:10:50;98338.66;;;24.95;34.00
48792;BME280;34587;48.816;9.420;2023-04-21T09:13:19;98339.28;;;25.19;32.87
48792;BME280;34587;48.816;9.420;2023-04-21T09:15:49;98349.22;;;25.06;32.17
48792;BME280;34587;48.816;9.420;2023-04-21T09:18:21;98346.56;;;25.06;31.68
48792;BME280;34587;48.816;9.420;2023-04-21T09:20:49;98344.09;;;24.72;32.96
48792;BME280;34587;48.816;9.420;2023-04-21T09:23:14;98344.75;;;25.27;32.07
48792;BME280;34587;48.816;9.420;2023-04-21T09:25:42;98342.56;;;24.91;33.22
48792;BME280;34587;48.816;9.420;2023-04-21T09:28:08;98329.97;;;25.25;31.46
48792;BME280;34587;48.816;9.420;2023-04-21T09:30:35;98329.31;;;25.63;32.28
48792;BME280;34587;48.816;9.420;2023-04-21T09:33:01;98331.25;;;27.93;29.20
48792;BME280;34587;48.816;9.420;2023-04-21T09:35:35;98333.38;;;25.98;30.88
48792;BME280;34587;48.816;9.420;2023-04-21T09:38:02;98331.47;;;26.29;31.10
48792;BME280;34587;48.816;9.420;2023-04-21T09:40:29;98338.09;;;27.12;30.07
48792;BME280;34587;48.816;9.420;2023-04-21T09:42:54;98345.94;;;23.83;33.96
48792;BME280;34587;48.816;9.420;2023-04-21T09:45:22;98345.53;;;24.65;33.20
48792;BME280;34587;48.816;9.420;2023-04-21T09:47:55;98343.31;;;24.49;34.53
48792;BME280;34587;48.816;9.420;2023-04-21T09:50:21;98331.69;;;25.66;31.01
48792;BME280;34587;48.816;9.420;2023-04-21T09:52:49;98339.69;;;23.96;33.69
48792;BME280;34587;48.816;9.420;2023-04-21T09:55:15;98341.22;;;24.64;33.58
48792;BME280;34587;48.816;9.420;2023-04-21T09:57:42;98333.50;;;24.61;32.66
48792;BME280;34587;48.816;9.420;2023-04-21T10:00:10;98329.94;;;25.46;33.33
48792;BME280;34587;48.816;9.420;2023-04-21T10:02:42;98318.84;;;26.02;32.23
48792;BME280;34587;48.816;9.420;2023-04-21T10:05:09;98310.91;;;27.65;29.70
48792;BME280;34587;48.816;9.420;2023-04-21T10:07:34;98316.38;;;26.29;30.56
48792;BME280;34587;48.816;9.420;2023-04-21T10:10:00;98321.41;;;27.29;29.88
48792;BME280;34587;48.816;9.420;2023-04-21T10:12:26;98315.47;;;28.10;28.41
48792;BME280;34587;48.816;9.420;2023-04-21T10:14:53;98305.13;;;27.42;29.77
48792;BME280;34587;48.816;9.420;2023-04-21T10:17:22;98293.03;;;28.84;27.49
48792;BME280;34587;48.816;9.420;2023-04-21T10:19:51;98294.84;;;29.27;27.46
48792;BME280;34587;48.816;9.420;2023-04-21T10:22:30;98292.81;;;26.55;30.34
48792;BME280;34587;48.816;9.420;2023-04-21T10:24:58;98287.81;;;28.38;28.75
48792;BME280;34587;48.816;9.420;2023-04-21T10:27:40;98296.25;;;24.53;33.85
48792;BME280;34587;48.816;9.420;2023-04-21T10:30:23;98284.78;;;26.26;32.44
48792;BME280;34587;48.816;9.420;2023-04-21T10:33:04;98286.81;;;25.02;32.80
48792;BME280;34587;48.816;9.420;2023-04-21T10:35:59;98280.31;;;26.27;31.89
48792;BME280;34587;48.816;9.420;2023-04-21T10:38:39;98280.88;;;26.88;30.23
48792;BME280;34587;48.816;9.420;2023-04-21T10:41:30;98285.66;;;25.46;32.18
48792;BME280;34587;48.816;9.420;2023-04-21T10:44:00;98287.06;;;22.07;38.43
48792;BME280;34587;48.816;9.420;2023-04-21T10:46:36;98286.75;;;23.06;37.69
48792;BME280;34587;48.816;9.420;2023-04-21T10:49:20;98291.16;;;18.63;45.55
48792;BME280;34587;48.816;9.420;2023-04-21T10:56:57;98278.81;;;22.95;37.04
48792;BME280;34587;48.816;9.420;2023-04-21T10:59:24;98281.78;;;21.34;40.34
48792;BME280;34587;48.816;9.420;2023-04-21T11:01:50;98275.88;;;22.87;36.85
48792;BME280;34587;48.816;9.420;2023-04-21T11:04:20;98265.38;;;25.35;33.65
48792;BME280;34587;48.816;9.420;2023-04-21T11:07:09;98265.50;;;26.63;32.63
48792;BME280;34587;48.816;9.420;2023-04-21T11:09:35;98274.00;;;23.11;36.45
48792;BME280;34587;48.816;9.420;2023-04-21T11:12:03;98263.97;;;23.50;36.09
48792;BME280;34587;48.816;9.420;2023-04-21T11:14:31;98259.63;;;26.11;33.02
48792;BME280;34587;48.816;9.420;2023-04-21T11:16:57;98249.00;;;24.58;35.61
48792;BME280;34587;48.816;9.420;2023-04-21T11:19:23;98256.63;;;24.19;34.72
48792;BME280;34587;48.816;9.420;2023-04-21T11:21:51;98258.91;;;23.02;36.60
48792;BME280;34587;48.816;9.420;2023-04-21T11:24:19;98252.91;;;25.26;33.64
48792;BME280;34587;48.816;9.420;2023-04-21T11:26:44;98249.31;;;24.44;35.44
48792;BME280;34587;48.816;9.420;2023-04-21T11:29:10;98253.56;;;24.56;34.46
48792;BME280;34587;48.816;9.420;2023-04-21T11:31:37;98246.59;;;24.55;33.20
48792;BME280;34587;48.816;9.420;2023-04-21T11:34:03;98241.56;;;24.20;35.13
48792;BME280;34587;48.816;9.420;2023-04-21T11:36:33;98241.44;;;25.16;32.54
48792;BME280;34587;48.816;9.420;2023-04-21T11:39:03;98240.25;;;25.09;33.12
48792;BME280;34587;48.816;9.420;2023-04-21T11:41:28;98231.50;;;25.18;33.95
48792;BME280;34587;48.816;9.420;2023-04-21T11:43:54;98234.72;;;24.91;34.04
48792;BME280;34587;48.816;9.420;2023-04-21T11:48:57;98225.81;;;25.63;31.97
48792;BME280;34587;48.816;9.420;2023-04-21T11:51:23;98225.94;;;24.91;33.22
48792;BME280;34587;48.816;9.420;2023-04-21T11:53:48;98224.03;;;23.42;35.42
48792;BME280;34587;48.816;9.420;2023-04-21T11:56:19;98223.81;;;24.43;35.51
48792;BME280;34587;48.816;9.420;2023-04-21T11:58:46;98225.50;;;23.46;36.60
48792;BME280;34587;48.816;9.420;2023-04-21T12:01:15;98226.81;;;22.49;37.70
48792;BME280;34587;48.816;9.420;2023-04-21T12:03:40;98219.16;;;23.92;36.42
48792;BME280;34587;48.816;9.420;2023-04-21T12:06:06;98239.75;;;19.46;43.09
48792;BME280;34587;48.816;9.420;2023-04-21T12:08:31;98232.63;;;19.19;46.08
48792;BME280;34587;48.816;9.420;2023-04-21T12:10:56;98219.53;;;19.05;46.01
48792;BME280;34587;48.816;9.420;2023-04-21T12:13:24;98207.81;;;19.25;44.59
48792;BME280;34587;48.816;9.420;2023-04-21T12:15:51;98216.63;;;18.51;45.83
48792;BME280;34587;48.816;9.420;2023-04-21T12:18:16;98203.56;;;18.80;46.70
48792;BME280;34587;48.816;9.420;2023-04-21T12:20:49;98213.84;;;18.54;46.76
48792;BME280;34587;48.816;9.420;2023-04-21T12:23:15;98214.53;;;18.42;47.06
48792;BME280;34587;48.816;9.420;2023-04-21T12:25:41;98215.13;;;18.61;47.16
48792;BME280;34587;48.816;9.420;2023-04-21T12:28:07;98212.75;;;18.28;49.20
48792;BME280;34587;48.816;9.420;2023-04-21T12:30:32;98202.78;;;18.19;47.60
48792;BME280;34587;48.816;9.420;2023-04-21T12:32:58;98195.50;;;18.68;47.97
48792;BME280;34587;48.816;9.420;2023-04-21T12:35:24;98204.91;;;18.12;48.78
48792;BME280;34587;48.816;9.420;2023-04-21T12:37:50;98204.34;;;18.07;48.67
48792;BME280;34587;48.816;9.420;2023-04-21T12:40:15;98192.47;;;18.60;48.24
48792;BME280;34587;48.816;9.420;2023-04-21T12:42:40;98185.03;;;18.97;47.70
48792;BME280;34587;48.816;9.420;2023-04-21T12:45:06;98181.28;;;18.87;47.42
48792;BME280;34587;48.816;9.420;2023-04-21T12:47:32;98183.41;;;18.80;48.25
48792;BME280;34587;48.816;9.420;2023-04-21T12:49:57;98162.06;;;18.86;47.73
48792;BME280;34587;48.816;9.420;2023-04-21T12:52:22;98171.03;;;19.11;46.58
48792;BME280;34587;48.816;9.420;2023-04-21T12:54:48;98161.50;;;18.95;47.47
48792;BME280;34587;48.816;9.420;2023-04-21T12:57:13;98153.84;;;19.19;46.86
48792;BME280;34587;48.816;9.420;2023-04-21T12:59:39;98157.66;;;18.87;45.25
48792;BME280;34587;48.816;9.420;2023-04-21T13:02:05;98160.06;;;19.04;46.21
48792;BME280;34587;48.816;9.420;2023-04-21T13:04:31;98159.88;;;18.93;46.88
48792;BME280;34587;48.816;9.420;2023-04-21T13:06:56;98150.22;;;19.08;46.65
48792;BME280;34587;48.816;9.420;2023-04-21T13:09:21;98139.97;;;19.17;45.77
48792;BME280;34587;48.816;9.420;2023-04-21T13:11:47;98141.28;;;19.24;46.30
48792;BME280;34587;48.816;9.420;2023-04-21T13:14:12;98147.25;;;19.41;45.00
48792;BME280;34587;48.816;9.420;2023-04-21T13:16:38;98137.41;;;19.57;45.33
48792;BME280;34587;48.816;9.420;2023-04-21T13:19:03;98136.41;;;19.99;44.85
48792;BME280;34587;48.816;9.420;2023-04-21T13:21:28;98139.72;;;19.49;44.24
48792;BME280;34587;48.816;9.420;2023-04-21T13:23:54;98146.22;;;20.10;44.80
48792;BME280;34587;48.816;9.420;2023-04-21T13:26:20;98141.38;;;20.04;43.69
48792;BME280;34587;48.816;9.420;2023-04-21T13:28:46;98137.13;;;19.89;44.31
48792;BME280;34587;48.816;9.420;2023-04-21T13:31:11;98132.38;;;19.81;45.00
48792;BME280;34587;48.816;9.420;2023-04-21T13:33:38;98123.94;;;20.28;44.93
48792;BME280;34587;48.816;9.420;2023-04-21T13:36:04;98129.41;;;20.25;44.04
48792;BME280;34587;48.816;9.420;2023-04-21T13:38:29;98133.09;;;20.23;43.36
48792;BME280;34587;48.816;9.420;2023-04-21T13:40:55;98132.16;;;20.37;43.39
48792;BME280;34587;48.816;9.420;2023-04-21T13:43:21;98120.41;;;20.55;43.18
48792;BME280;34587;48.816;9.420;2023-04-21T13:45:46;98114.97;;;19.93;43.87
48792;BME280;34587;48.816;9.420;2023-04-21T13:48:14;98110.56;;;19.66;44.96
48792;BME280;34587;48.816;9.420;2023-04-21T13:50:39;98107.22;;;19.64;45.91
48792;BME280;34587;48.816;9.420;2023-04-21T13:53:04;98098.03;;;19.97;45.54
48792;BME280;34587;48.816;9.420;2023-04-21T13:55:30;98104.91;;;19.72;45.76
48792;BME280;34587;48.816;9.420;2023-04-21T13:57:57;98103.59;;;19.92;45.81
48792;BME280;34587;48.816;9.420;2023-04-21T14:00:23;98112.19;;;19.82;44.93
48792;BME280;34587;48.816;9.420;2023-04-21T14:02:48;98101.16;;;19.89;44.23
48792;BME280;34587;48.816;9.420;2023-04-21T14:05:14;98105.59;;;20.01;43.29
48792;BME280;34587;48.816;9.420;2023-04-21T14:07:40;98103.53;;;20.32;43.41
48792;BME280;34587;48.816;9.420;2023-04-21T14:10:06;98098.28;;;20.32;43.21
48792;BME280;34587;48.816;9.420;2023-04-21T14:12:32;98107.53;;;20.12;43.56
48792;BME280;34587;48.816;9.420;2023-04-21T14:14:57;98098.06;;;20.22;45.04
48792;BME280;34587;48.816;9.420;2023-04-21T14:17:22;98100.00;;;19.81;45.27
48792;BME280;34587;48.816;9.420;2023-04-21T14:19:48;98090.00;;;19.86;44.81
48792;BME280;34587;48.816;9.420;2023-04-21T14:22:14;98084.66;;;20.00;44.04
48792;BME280;34587;48.816;9.420;2023-04-21T14:24:39;98080.78;;;19.39;43.84
48792;BME280;34587;48.816;9.420;2023-04-21T14:27:05;98070.34;;;19.79;44.40
48792;BME280;34587;48.816;9.420;2023-04-21T14:29:30;98072.28;;;19.62;44.25
48792;BME280;34587;48.816;9.420;2023-04-21T14:31:56;98060.81;;;20.03;43.96
48792;BME280;34587;48.816;9.420;2023-04-21T14:34:25;98058.88;;;19.80;42.77
48792;BME280;34587;48.816;9.420;2023-04-21T14:36:51;98061.88;;;19.34;44.08
48792;BME280;34587;48.816;9.420;2023-04-21T14:39:17;98064.91;;;19.00;44.08
48792;BME280;34587;48.816;9.420;2023-04-21T14:41:42;98068.03;;;18.79;44.37
48792;BME280;34587;48.816;9.420;2023-04-21T14:44:08;98058.59;;;19.03;43.53
48792;BME280;34587;48.816;9.420;2023-04-21T14:46:33;98059.06;;;19.37;42.79
48792;BME280;34587;48.816;9.420;2023-04-21T14:48:58;98057.06;;;19.67;42.70
48792;BME280;34587;48.816;9.420;2023-04-21T14:51:24;98042.38;;;19.77;41.58
48792;BME280;34587;48.816;9.420;2023-04-21T14:53:49;98048.28;;;19.94;41.55
48792;BME280;34587;48.816;9.420;2023-04-21T14:56:15;98054.59;;;20.04;41.06
48792;BME280;34587;48.816;9.420;2023-04-21T14:58:40;98044.25;;;20.01;41.15
48792;BME280;34587;48.816;9.420;2023-04-21T15:01:06;98051.66;;;20.21;41.28
48792;BME280;34587;48.816;9.420;2023-04-21T15:03:32;98051.84;;;20.18;40.81
48792;BME280;34587;48.816;9.420;2023-04-21T15:05:57;98056.19;;;20.07;40.72
48792;BME280;34587;48.816;9.420;2023-04-21T15:08:22;98048.19;;;20.08;41.04
48792;BME280;34587;48.816;9.420;2023-04-21T15:10:48;98056.34;;;19.78;41.55
48792;BME280;34587;48.816;9.420;2023-04-21T15:13:13;98048.44;;;19.65;42.45
48792;BME280;34587;48.816;9.420;2023-04-21T15:15:39;98059.22;;;19.88;42.41
48792;BME280;34587;48.816;9.420;2023-04-21T15:18:04;98056.13;;;19.81;42.34
48792;BME280;34587;48.816;9.420;2023-04-21T15:20:30;98048.59;;;20.02;43.15
48792;BME280;34587;48.816;9.420;2023-04-21T15:22:55;98047.22;;;20.09;42.83
48792;BME280;34587;48.816;9.420;2023-04-21T15:25:21;98041.88;;;19.58;43.14
48792;BME280;34587;48.816;9.420;2023-04-21T15:27:46;98037.53;;;19.44;44.36
48792;BME280;34587;48.816;9.420;2023-04-21T15:30:12;98044.75;;;19.01;45.61
48792;BME280;34587;48.816;9.420;2023-04-21T15:32:37;98041.03;;;18.77;46.03
48792;BME280;34587;48.816;9.420;2023-04-21T15:35:03;98038.56;;;18.88;46.26
48792;BME280;34587;48.816;9.420;2023-04-21T15:37:28;98039.50;;;19.01;45.19
48792;BME280;34587;48.816;9.420;2023-04-21T15:39:53;98038.94;;;18.96;45.85
48792;BME280;34587;48.816;9.420;2023-04-21T15:42:19;98037.00;;;19.12;46.24
48792;BME280;34587;48.816;9.420;2023-04-21T15:44:44;98038.91;;;19.10;46.13
48792;BME280;34587;48.816;9.420;2023-04-21T15:47:11;98037.41;;;19.06;45.31
48792;BME280;34587;48.816;9.420;2023-04-21T15:49:36;98045.03;;;19.23;45.98
48792;BME280;34587;48.816;9.420;2023-04-21T15:52:01;98044.16;;;19.10;46.08
48792;BME280;34587;48.816;9.420;2023-04-21T15:54:28;98045.13;;;19.49;45.39
48792;BME280;34587;48.816;9.420;2023-04-21T15:56:55;98040.56;;;19.11;46.16
48792;BME280;34587;48.816;9.420;2023-04-21T15:59:21;98036.59;;;19.45;46.14
48792;BME280;34587;48.816;9.420;2023-04-21T16:01:46;98037.72;;;19.41;45.80
48792;BME280;34587;48.816;9.420;2023-04-21T16:04:12;98031.75;;;19.12;45.91
48792;BME280;34587;48.816;9.420;2023-04-21T16:06:37;98034.19;;;19.15;46.51
48792;BME280;34587;48.816;9.420;2023-04-21T16:09:02;98031.69;;;18.99;46.12
48792;BME280;34587;48.816;9.420;2023-04-21T16:11:28;98034.47;;;18.84;46.60
48792;BME280;34587;48.816;9.420;2023-04-21T16:13:53;98021.41;;;18.96;46.32
48792;BME280;34587;48.816;9.420;2023-04-21T16:16:19;98029.75;;;18.89;46.42
48792;BME280;34587;48.816;9.420;2023-04-21T16:18:44;98030.66;;;19.02;45.27
48792;BME280;34587;48.816;9.420;2023-04-21T16:21:09;98033.25;;;19.16;45.85
48792;BME280;34587;48.816;9.420;2023-04-21T16:23:35;98030.69;;;19.42;45.85
48792;BME280;34587;48.816;9.420;2023-04-21T16:26:01;98012.88;;;19.20;45.79
48792;BME280;34587;48.816;9.420;2023-04-21T16:28:26;98024.81;;;19.11;45.62
48792;BME280;34587;48.816;9.420;2023-04-21T16:30:51;98021.25;;;19.12;45.79
48792;BME280;34587;48.816;9.420;2023-04-21T16:33:17;98021.41;;;18.96;46.35
48792;BME280;34587;48.816;9.420;2023-04-21T16:35:42;98017.16;;;18.94;46.66
48792;BME280;34587;48.816;9.420;2023-04-21T16:38:08;98014.94;;;18.88;46.30
48792;BME280;34587;48.816;9.420;2023-04-21T16:40:33;98013.16;;;18.88;46.65
48792;BME280;34587;48.816;9.420;2023-04-21T16:42:59;98015.34;;;18.67;46.97
48792;BME280;34587;48.816;9.420;2023-04-21T16:45:24;98016.31;;;18.52;47.67
48792;BME280;34587;48.816;9.420;2023-04-21T16:47:49;98002.66;;;18.47;48.11
48792;BME280;34587;48.816;9.420;2023-04-21T16:50:15;98002.66;;;18.47;48.06
48792;BME280;34587;48.816;9.420;2023-04-21T16:52:40;98011.44;;;18.32;48.55
48792;BME280;34587;48.816;9.420;2023-04-21T16:55:06;98012.31;;;18.04;48.92
48792;BME280;34587;48.816;9.420;2023-04-21T16:57:32;98016.88;;;18.00;49.37
48792;BME280;34587;48.816;9.420;2023-04-21T16:59:58;98031.66;;;18.01;48.74
48792;BME280;34587;48.816;9.420;2023-04-21T17:02:24;98014.06;;;18.03;49.02
48792;BME280;34587;48.816;9.420;2023-04-21T17:04:49;98020.22;;;17.88;49.21
48792;BME280;34587;48.816;9.420;2023-04-21T17:07:15;98014.91;;;17.89;50.19
48792;BME280;34587;48.816;9.420;2023-04-21T17:09:40;98020.44;;;17.85;50.25
48792;BME280;34587;48.816;9.420;2023-04-21T17:12:06;98019.88;;;17.80;50.29
48792;BME280;34587;48.816;9.420;2023-04-21T17:14:31;98021.13;;;17.72;50.74
48792;BME280;34587;48.816;9.420;2023-04-21T17:16:56;98029.59;;;17.62;51.10
48792;BME280;34587;48.816;9.420;2023-04-21T17:19:22;98022.56;;;17.48;51.49
48792;BME280;34587;48.816;9.420;2023-04-21T17:21:48;98019.88;;;17.34;51.59